sensor_id;sensor_type;location;lat;lon;timestamp;P1;durP1;ratioP1;P2;durP2;ratioP2
62256;SDS011;48240;52.962;5.790;2022-11-20T04:51:31;6.25;;;4.45;;
62256;SDS011;48240;52.962;5.790;2022-11-20T04:53:57;6.90;;;4.40;;
62256;SDS011;48240;52.962;5.790;2022-11-20T04:56:23;6.07;;;4.10;;
62256;SDS011;48240;52.962;5.790;2022-11-20T04:58:50;8.77;;;4.60;;
62256;SDS011;48240;52.962;5.790;2022-11-20T05:01:17;5.38;;;4.03;;
62256;SDS011;48240;52.962;5.790;2022-11-20T05:03:43;5.63;;;4.13;;
62256;SDS011;48240;52.962;5.790;2022-11-20T05:06:11;6.72;;;3.90;;
62256;SDS011;48240;52.962;5.790;2022-11-20T05:08:37;5.85;;;4.47;;
62256;SDS011;48240;52.962;5.790;2022-11-20T05:11:04;6.10;;;4.28;;
62256;SDS011;48240;52.962;5.790;2022-11-20T05:13:31;7.15;;;4.30;;
62256;SDS011;48240;52.962;5.790;2022-11-20T05:16:03;7.05;;;3.88;;
62256;SDS011;48240;52.962;5.790;2022-11-20T05:18:29;5.50;;;4.05;;
62256;SDS011;48240;52.962;5.790;2022-11-20T05:20:56;6.55;;;4.57;;
62256;SDS011;48240;52.962;5.790;2022-11-20T05:23:22;6.47;;;4.35;;
62256;SDS011;48240;52.962;5.790;2022-11-20T05:25:51;6.15;;;4.05;;
62256;SDS011;48240;52.962;5.790;2022-11-20T05:28:17;5.22;;;3.50;;
62256;SDS011;48240;52.962;5.790;2022-11-20T05:30:43;4.57;;;3.65;;
62256;SDS011;48240;52.962;5.790;2022-11-20T05:33:09;5.22;;;3.78;;
62256;SDS011;48240;52.962;5.790;2022-11-20T05:35:35;4.63;;;3.50;;
62256;SDS011;48240;52.962;5.790;2022-11-20T05:38:01;4.43;;;3.60;;
62256;SDS011;48240;52.962;5.790;2022-11-20T05:40:27;4.32;;;3.17;;
62256;SDS011;48240;52.962;5.790;2022-11-20T05:42:53;5.85;;;3.72;;
62256;SDS011;48240;52.962;5.790;2022-11-20T05:45:20;5.47;;;4.00;;
62256;SDS011;48240;52.962;5.790;2022-11-20T05:47:46;5.18;;;3.60;;
62256;SDS011;48240;52.962;5.790;2022-11-20T05:50:12;4.50;;;3.40;;
62256;SDS011;48240;52.962;5.790;2022-11-20T05:52:38;4.88;;;3.80;;
62256;SDS011;48240;52.962;5.790;2022-11-20T05:55:04;5.43;;;4.03;;
62256;SDS011;48240;52.962;5.790;2022-11-20T05:57:31;5.80;;;3.88;;
62256;SDS011;48240;52.962;5.790;2022-11-20T05:59:57;5.78;;;4.00;;
62256;SDS011;48240;52.962;5.790;2022-11-20T06:02:23;5.32;;;4.10;;
62256;SDS011;48240;52.962;5.790;2022-11-20T06:04:49;4.95;;;4.00;;
62256;SDS011;48240;52.962;5.790;2022-11-20T06:07:15;5.25;;;4.18;;
62256;SDS011;48240;52.962;5.790;2022-11-20T06:09:41;4.53;;;3.50;;
62256;SDS011;48240;52.962;5.790;2022-11-20T06:12:07;5.13;;;3.78;;
62256;SDS011;48240;52.962;5.790;2022-11-20T06:14:33;4.95;;;3.80;;
62256;SDS011;48240;52.962;5.790;2022-11-20T06:16:59;5.80;;;4.05;;
62256;SDS011;48240;52.962;5.790;2022-11-20T06:19:26;7.15;;;4.22;;
62256;SDS011;48240;52.962;5.790;2022-11-20T06:21:52;4.80;;;3.75;;
62256;SDS011;48240;52.962;5.790;2022-11-20T06:24:18;4.03;;;3.03;;
62256;SDS011;48240;52.962;5.790;2022-11-20T06:26:45;5.38;;;3.80;;
62256;SDS011;48240;52.962;5.790;2022-11-20T06:29:11;4.40;;;3.53;;
62256;SDS011;48240;52.962;5.790;2022-11-20T06:31:37;5.38;;;3.50;;
62256;SDS011;48240;52.962;5.790;2022-11-20T06:34:04;5.28;;;3.63;;
62256;SDS011;48240;52.962;5.790;2022-11-20T06:36:31;5.90;;;3.25;;
62256;SDS011;48240;52.962;5.790;2022-11-20T06:38:57;5.65;;;3.90;;
62256;SDS011;48240;52.962;5.790;2022-11-20T06:41:23;5.70;;;3.70;;
62256;SDS011;48240;52.962;5.790;2022-11-20T06:43:50;5.32;;;3.40;;
62256;SDS011;48240;52.962;5.790;2022-11-20T06:46:17;4.85;;;3.40;;
62256;SDS011;48240;52.962;5.790;2022-11-20T06:48:44;4.85;;;3.35;;
62256;SDS011;48240;52.962;5.790;2022-11-20T06:51:10;4.18;;;2.97;;
62256;SDS011;48240;52.962;5.790;2022-11-20T06:53:36;6.18;;;3.08;;
62256;SDS011;48240;52.962;5.790;2022-11-20T06:56:02;4.20;;;3.22;;
62256;SDS011;48240;52.962;5.790;2022-11-20T06:58:30;5.85;;;3.25;;
62256;SDS011;48240;52.962;5.790;2022-11-20T07:00:59;3.90;;;2.97;;
62256;SDS011;48240;52.962;5.790;2022-11-20T07:03:26;4.25;;;3.00;;
62256;SDS011;48240;52.962;5.790;2022-11-20T07:05:54;4.50;;;3.25;;
62256;SDS011;48240;52.962;5.790;2022-11-20T07:08:20;4.38;;;3.10;;
62256;SDS011;48240;52.962;5.790;2022-11-20T07:10:46;4.10;;;3.00;;
62256;SDS011;48240;52.962;5.790;2022-11-20T07:13:12;3.60;;;2.83;;
62256;SDS011;48240;52.962;5.790;2022-11-20T07:15:38;4.10;;;2.97;;
62256;SDS011;48240;52.962;5.790;2022-11-20T07:18:04;5.88;;;3.55;;
62256;SDS011;48240;52.962;5.790;2022-11-20T07:20:30;4.82;;;3.05;;
62256;SDS011;48240;52.962;5.790;2022-11-20T07:22:57;5.32;;;3.20;;
62256;SDS011;48240;52.962;5.790;2022-11-20T07:25:23;4.55;;;3.50;;
62256;SDS011;48240;52.962;5.790;2022-11-20T07:27:50;5.00;;;3.50;;
62256;SDS011;48240;52.962;5.790;2022-11-20T07:30:16;5.43;;;4.03;;
62256;SDS011;48240;52.962;5.790;2022-11-20T07:32:42;3.80;;;3.25;;
62256;SDS011;48240;52.962;5.790;2022-11-20T07:35:08;4.50;;;3.45;;
62256;SDS011;48240;52.962;5.790;2022-11-20T07:37:34;3.58;;;3.05;;
62256;SDS011;48240;52.962;5.790;2022-11-20T07:40:00;5.38;;;3.78;;
62256;SDS011;48240;52.962;5.790;2022-11-20T07:42:26;4.55;;;3.45;;
62256;SDS011;48240;52.962;5.790;2022-11-20T07:44:53;5.05;;;4.10;;
62256;SDS011;48240;52.962;5.790;2022-11-20T07:47:19;4.57;;;3.50;;
62256;SDS011;48240;52.962;5.790;2022-11-20T07:49:45;4.85;;;3.72;;
62256;SDS011;48240;52.962;5.790;2022-11-20T07:52:11;4.57;;;3.22;;
62256;SDS011;48240;52.962;5.790;2022-11-20T07:54:37;3.72;;;3.13;;
62256;SDS011;48240;52.962;5.790;2022-11-20T07:57:03;4.32;;;3.10;;
62256;SDS011;48240;52.962;5.790;2022-11-20T07:59:29;4.95;;;3.10;;
62256;SDS011;48240;52.962;5.790;2022-11-20T08:01:55;3.75;;;3.00;;
62256;SDS011;48240;52.962;5.790;2022-11-20T08:04:21;4.55;;;3.30;;
62256;SDS011;48240;52.962;5.790;2022-11-20T08:06:48;3.88;;;3.10;;
62256;SDS011;48240;52.962;5.790;2022-11-20T08:09:14;3.60;;;3.00;;
62256;SDS011;48240;52.962;5.790;2022-11-20T08:11:40;4.75;;;3.30;;
62256;SDS011;48240;52.962;5.790;2022-11-20T08:14:25;4.15;;;3.17;;
62256;SDS011;48240;52.962;5.790;2022-11-20T08:16:52;4.15;;;3.40;;
62256;SDS011;48240;52.962;5.790;2022-11-20T08:19:19;4.47;;;3.10;;
62256;SDS011;48240;52.962;5.790;2022-11-20T08:21:45;4.82;;;3.25;;
62256;SDS011;48240;52.962;5.790;2022-11-20T08:24:11;4.55;;;3.17;;
62256;SDS011;48240;52.962;5.790;2022-11-20T08:26:38;4.53;;;3.70;;
62256;SDS011;48240;52.962;5.790;2022-11-20T08:29:04;4.63;;;3.65;;
62256;SDS011;48240;52.962;5.790;2022-11-20T08:31:31;3.80;;;3.38;;
62256;SDS011;48240;52.962;5.790;2022-11-20T08:33:57;6.45;;;4.20;;
62256;SDS011;48240;52.962;5.790;2022-11-20T08:36:23;5.13;;;3.53;;
62256;SDS011;48240;52.962;5.790;2022-11-20T08:38:53;4.38;;;3.20;;
62256;SDS011;48240;52.962;5.790;2022-11-20T08:41:19;4.68;;;3.22;;
62256;SDS011;48240;52.962;5.790;2022-11-20T08:46:41;3.78;;;3.10;;
62256;SDS011;48240;52.962;5.790;2022-11-20T08:49:09;4.53;;;3.78;;
62256;SDS011;48240;52.962;5.790;2022-11-20T08:51:36;3.42;;;3.00;;
62256;SDS011;48240;52.962;5.790;2022-11-20T08:54:02;6.40;;;3.90;;
62256;SDS011;48240;52.962;5.790;2022-11-20T08:56:28;5.15;;;3.60;;
62256;SDS011;48240;52.962;5.790;2022-11-20T08:58:55;5.22;;;3.50;;
62256;SDS011;48240;52.962;5.790;2022-11-20T09:01:22;5.05;;;3.75;;
62256;SDS011;48240;52.962;5.790;2022-11-20T09:03:48;4.47;;;3.38;;
62256;SDS011;48240;52.962;5.790;2022-11-20T09:06:14;4.55;;;3.40;;
62256;SDS011;48240;52.962;5.790;2022-11-20T09:08:41;5.00;;;3.90;;
62256;SDS011;48240;52.962;5.790;2022-11-20T09:11:07;6.10;;;3.85;;
62256;SDS011;48240;52.962;5.790;2022-11-20T09:13:34;8.82;;;3.70;;
62256;SDS011;48240;52.962;5.790;2022-11-20T09:16:04;6.95;;;3.70;;
62256;SDS011;48240;52.962;5.790;2022-11-20T09:18:31;3.78;;;3.20;;
62256;SDS011;48240;52.962;5.790;2022-11-20T09:21:00;7.18;;;3.35;;
62256;SDS011;48240;52.962;5.790;2022-11-20T09:23:27;4.22;;;3.38;;
62256;SDS011;48240;52.962;5.790;2022-11-20T09:25:53;4.93;;;3.75;;
62256;SDS011;48240;52.962;5.790;2022-11-20T09:28:21;4.10;;;3.42;;
62256;SDS011;48240;52.962;5.790;2022-11-20T09:30:47;4.32;;;3.58;;
62256;SDS011;48240;52.962;5.790;2022-11-20T09:33:14;5.32;;;3.55;;
62256;SDS011;48240;52.962;5.790;2022-11-20T09:35:40;4.85;;;3.20;;
62256;SDS011;48240;52.962;5.790;2022-11-20T09:38:06;5.45;;;3.72;;
62256;SDS011;48240;52.962;5.790;2022-11-20T09:40:32;4.10;;;3.30;;
62256;SDS011;48240;52.962;5.790;2022-11-20T09:43:05;4.22;;;3.30;;
62256;SDS011;48240;52.962;5.790;2022-11-20T09:48:18;4.15;;;3.40;;
62256;SDS011;48240;52.962;5.790;2022-11-20T09:50:49;6.00;;;3.50;;
62256;SDS011;48240;52.962;5.790;2022-11-20T09:55:47;3.97;;;3.30;;
62256;SDS011;48240;52.962;5.790;2022-11-20T09:58:15;5.05;;;3.80;;
62256;SDS011;48240;52.962;5.790;2022-11-20T10:00:45;4.72;;;3.80;;
62256;SDS011;48240;52.962;5.790;2022-11-20T10:03:13;6.93;;;3.95;;
62256;SDS011;48240;52.962;5.790;2022-11-20T10:10:36;4.78;;;3.75;;
62256;SDS011;48240;52.962;5.790;2022-11-20T10:13:20;6.75;;;3.78;;
62256;SDS011;48240;52.962;5.790;2022-11-20T10:15:53;4.82;;;3.70;;
62256;SDS011;48240;52.962;5.790;2022-11-20T10:19:07;9.40;;;4.18;;
62256;SDS011;48240;52.962;5.790;2022-11-20T10:21:22;5.25;;;4.13;;
62256;SDS011;48240;52.962;5.790;2022-11-20T10:26:21;4.53;;;3.90;;
62256;SDS011;48240;52.962;5.790;2022-11-20T10:31:51;5.57;;;3.92;;
62256;SDS011;48240;52.962;5.790;2022-11-20T10:34:17;5.70;;;4.15;;
62256;SDS011;48240;52.962;5.790;2022-11-20T10:36:46;5.30;;;3.75;;
62256;SDS011;48240;52.962;5.790;2022-11-20T10:41:41;5.32;;;4.05;;
62256;SDS011;48240;52.962;5.790;2022-11-20T10:44:21;4.82;;;3.97;;
62256;SDS011;48240;52.962;5.790;2022-11-20T10:47:11;6.60;;;3.85;;
62256;SDS011;48240;52.962;5.790;2022-11-20T10:49:38;5.18;;;3.60;;
62256;SDS011;48240;52.962;5.790;2022-11-20T10:57:03;5.22;;;3.40;;
62256;SDS011;48240;52.962;5.790;2022-11-20T11:01:59;9.82;;;4.00;;
62256;SDS011;48240;52.962;5.790;2022-11-20T11:07:42;5.03;;;3.40;;
62256;SDS011;48240;52.962;5.790;2022-11-20T11:09:44;10.45;;;3.35;;
62256;SDS011;48240;52.962;5.790;2022-11-20T11:12:12;6.40;;;3.63;;
62256;SDS011;48240;52.962;5.790;2022-11-20T11:14:42;5.13;;;4.07;;
62256;SDS011;48240;52.962;5.790;2022-11-20T11:17:18;3.83;;;3.33;;
62256;SDS011;48240;52.962;5.790;2022-11-20T11:19:45;5.55;;;3.72;;
62256;SDS011;48240;52.962;5.790;2022-11-20T11:22:15;6.45;;;3.70;;
62256;SDS011;48240;52.962;5.790;2022-11-20T11:27:11;5.22;;;3.58;;
62256;SDS011;48240;52.962;5.790;2022-11-20T11:29:37;6.07;;;3.40;;
62256;SDS011;48240;52.962;5.790;2022-11-20T11:32:04;4.40;;;3.33;;
62256;SDS011;48240;52.962;5.790;2022-11-20T11:34:31;6.25;;;3.35;;
62256;SDS011;48240;52.962;5.790;2022-11-20T11:36:57;6.57;;;3.72;;
62256;SDS011;48240;52.962;5.790;2022-11-20T11:39:24;6.70;;;3.60;;
62256;SDS011;48240;52.962;5.790;2022-11-20T11:41:51;5.13;;;3.47;;
62256;SDS011;48240;52.962;5.790;2022-11-20T11:44:18;4.05;;;3.65;;
62256;SDS011;48240;52.962;5.790;2022-11-20T11:47:04;4.72;;;3.55;;
62256;SDS011;48240;52.962;5.790;2022-11-20T11:49:31;4.50;;;3.45;;
62256;SDS011;48240;52.962;5.790;2022-11-20T11:52:14;4.80;;;3.42;;
62256;SDS011;48240;52.962;5.790;2022-11-20T11:54:58;6.50;;;4.00;;
62256;SDS011;48240;52.962;5.790;2022-11-20T11:57:29;5.28;;;3.85;;
62256;SDS011;48240;52.962;5.790;2022-11-20T12:00:08;4.72;;;3.30;;
62256;SDS011;48240;52.962;5.790;2022-11-20T12:05:47;4.65;;;3.30;;
62256;SDS011;48240;52.962;5.790;2022-11-20T12:13:04;4.85;;;3.47;;
62256;SDS011;48240;52.962;5.790;2022-11-20T12:15:33;4.13;;;3.00;;
62256;SDS011;48240;52.962;5.790;2022-11-20T12:18:00;7.20;;;3.63;;
62256;SDS011;48240;52.962;5.790;2022-11-20T12:20:28;8.30;;;3.20;;
62256;SDS011;48240;52.962;5.790;2022-11-20T12:23:01;4.78;;;3.70;;
62256;SDS011;48240;52.962;5.790;2022-11-20T12:25:33;6.13;;;3.25;;
62256;SDS011;48240;52.962;5.790;2022-11-20T12:30:29;5.50;;;3.38;;
62256;SDS011;48240;52.962;5.790;2022-11-20T12:40:28;4.30;;;3.50;;
62256;SDS011;48240;52.962;5.790;2022-11-20T12:53:46;4.03;;;3.50;;
62256;SDS011;48240;52.962;5.790;2022-11-20T13:01:39;4.38;;;3.25;;
62256;SDS011;48240;52.962;5.790;2022-11-20T13:06:44;4.85;;;3.20;;
62256;SDS011;48240;52.962;5.790;2022-11-20T13:09:12;5.10;;;3.40;;
62256;SDS011;48240;52.962;5.790;2022-11-20T13:11:50;3.95;;;3.00;;
62256;SDS011;48240;52.962;5.790;2022-11-20T13:14:37;4.63;;;3.30;;
62256;SDS011;48240;52.962;5.790;2022-11-20T13:19:38;4.63;;;3.20;;
62256;SDS011;48240;52.962;5.790;2022-11-20T13:22:05;4.00;;;3.60;;
62256;SDS011;48240;52.962;5.790;2022-11-20T13:24:31;4.20;;;3.70;;
62256;SDS011;48240;52.962;5.790;2022-11-20T13:27:02;6.43;;;3.60;;
62256;SDS011;48240;52.962;5.790;2022-11-20T13:29:28;5.15;;;3.25;;
62256;SDS011;48240;52.962;5.790;2022-11-20T13:32:13;5.45;;;3.50;;
62256;SDS011;48240;52.962;5.790;2022-11-20T13:34:51;6.88;;;3.92;;
62256;SDS011;48240;52.962;5.790;2022-11-20T13:37:28;5.13;;;3.30;;
62256;SDS011;48240;52.962;5.790;2022-11-20T13:40:05;5.13;;;3.85;;
62256;SDS011;48240;52.962;5.790;2022-11-20T13:42:31;10.80;;;3.15;;
62256;SDS011;48240;52.962;5.790;2022-11-20T13:45:02;7.55;;;3.45;;
62256;SDS011;48240;52.962;5.790;2022-11-20T13:47:28;5.07;;;3.33;;
62256;SDS011;48240;52.962;5.790;2022-11-20T13:49:55;4.40;;;3.00;;
62256;SDS011;48240;52.962;5.790;2022-11-20T13:57:46;3.20;;;2.72;;
62256;SDS011;48240;52.962;5.790;2022-11-20T14:00:15;4.65;;;2.90;;
62256;SDS011;48240;52.962;5.790;2022-11-20T14:02:41;4.72;;;3.40;;
62256;SDS011;48240;52.962;5.790;2022-11-20T14:05:17;3.25;;;2.50;;
62256;SDS011;48240;52.962;5.790;2022-11-20T14:07:44;8.75;;;3.08;;
62256;SDS011;48240;52.962;5.790;2022-11-20T14:10:22;4.68;;;3.15;;
62256;SDS011;48240;52.962;5.790;2022-11-20T14:12:49;5.45;;;3.55;;
62256;SDS011;48240;52.962;5.790;2022-11-20T14:17:51;3.50;;;2.75;;
62256;SDS011;48240;52.962;5.790;2022-11-20T14:20:17;3.85;;;2.80;;
62256;SDS011;48240;52.962;5.790;2022-11-20T14:22:51;5.18;;;3.28;;
62256;SDS011;48240;52.962;5.790;2022-11-20T14:27:44;5.15;;;3.30;;
62256;SDS011;48240;52.962;5.790;2022-11-20T14:30:55;3.55;;;3.03;;
62256;SDS011;48240;52.962;5.790;2022-11-20T14:33:02;6.70;;;3.45;;
62256;SDS011;48240;52.962;5.790;2022-11-20T14:35:30;4.45;;;3.20;;
62256;SDS011;48240;52.962;5.790;2022-11-20T14:37:57;6.35;;;3.00;;
62256;SDS011;48240;52.962;5.790;2022-11-20T14:42:49;3.58;;;3.10;;
62256;SDS011;48240;52.962;5.790;2022-11-20T14:45:15;3.60;;;3.10;;
62256;SDS011;48240;52.962;5.790;2022-11-20T14:47:42;4.35;;;3.28;;
62256;SDS011;48240;52.962;5.790;2022-11-20T14:50:19;3.90;;;3.35;;
62256;SDS011;48240;52.962;5.790;2022-11-20T14:52:55;3.85;;;3.10;;
62256;SDS011;48240;52.962;5.790;2022-11-20T14:55:25;5.05;;;3.05;;
62256;SDS011;48240;52.962;5.790;2022-11-20T14:57:55;4.05;;;2.72;;
62256;SDS011;48240;52.962;5.790;2022-11-20T15:00:22;5.03;;;3.03;;
62256;SDS011;48240;52.962;5.790;2022-11-20T15:02:49;4.57;;;3.10;;
62256;SDS011;48240;52.962;5.790;2022-11-20T15:05:16;6.30;;;3.45;;
62256;SDS011;48240;52.962;5.790;2022-11-20T15:07:47;8.30;;;3.35;;
62256;SDS011;48240;52.962;5.790;2022-11-20T15:10:19;5.20;;;3.00;;
62256;SDS011;48240;52.962;5.790;2022-11-20T15:12:47;4.18;;;2.80;;
62256;SDS011;48240;52.962;5.790;2022-11-20T15:15:15;3.47;;;3.13;;
62256;SDS011;48240;52.962;5.790;2022-11-20T15:17:42;4.38;;;3.75;;
62256;SDS011;48240;52.962;5.790;2022-11-20T15:20:10;3.40;;;3.05;;
62256;SDS011;48240;52.962;5.790;2022-11-20T15:22:37;4.50;;;3.42;;
62256;SDS011;48240;52.962;5.790;2022-11-20T15:25:13;3.90;;;3.03;;
62256;SDS011;48240;52.962;5.790;2022-11-20T15:27:40;4.13;;;3.10;;
62256;SDS011;48240;52.962;5.790;2022-11-20T15:30:12;3.22;;;2.70;;
62256;SDS011;48240;52.962;5.790;2022-11-20T15:32:38;4.18;;;3.17;;
62256;SDS011;48240;52.962;5.790;2022-11-20T15:35:04;4.18;;;3.10;;
62256;SDS011;48240;52.962;5.790;2022-11-20T15:37:31;3.67;;;3.10;;
62256;SDS011;48240;52.962;5.790;2022-11-20T15:39:57;3.75;;;3.15;;
62256;SDS011;48240;52.962;5.790;2022-11-20T15:42:23;4.32;;;3.45;;
62256;SDS011;48240;52.962;5.790;2022-11-20T15:44:49;5.25;;;3.30;;
62256;SDS011;48240;52.962;5.790;2022-11-20T15:47:15;3.95;;;3.38;;
62256;SDS011;48240;52.962;5.790;2022-11-20T15:49:42;5.00;;;3.25;;
62256;SDS011;48240;52.962;5.790;2022-11-20T15:52:09;4.57;;;3.33;;
62256;SDS011;48240;52.962;5.790;2022-11-20T15:54:35;3.85;;;3.25;;
62256;SDS011;48240;52.962;5.790;2022-11-20T15:57:01;3.95;;;3.30;;
62256;SDS011;48240;52.962;5.790;2022-11-20T15:59:28;4.97;;;3.85;;
62256;SDS011;48240;52.962;5.790;2022-11-20T16:01:54;5.07;;;3.20;;
62256;SDS011;48240;52.962;5.790;2022-11-20T16:04:20;3.60;;;2.92;;
62256;SDS011;48240;52.962;5.790;2022-11-20T16:06:46;4.55;;;3.05;;
62256;SDS011;48240;52.962;5.790;2022-11-20T16:09:12;4.05;;;3.28;;
62256;SDS011;48240;52.962;5.790;2022-11-20T16:11:38;5.00;;;3.10;;
62256;SDS011;48240;52.962;5.790;2022-11-20T16:14:05;3.92;;;3.05;;
62256;SDS011;48240;52.962;5.790;2022-11-20T16:16:50;4.18;;;2.90;;
62256;SDS011;48240;52.962;5.790;2022-11-20T16:19:16;10.60;;;3.13;;
62256;SDS011;48240;52.962;5.790;2022-11-20T16:21:43;7.20;;;3.03;;
62256;SDS011;48240;52.962;5.790;2022-11-20T16:24:10;3.95;;;3.20;;
62256;SDS011;48240;52.962;5.790;2022-11-20T16:26:37;3.30;;;2.80;;
62256;SDS011;48240;52.962;5.790;2022-11-20T16:29:04;4.50;;;3.35;;
62256;SDS011;48240;52.962;5.790;2022-11-20T16:31:31;9.85;;;4.32;;
62256;SDS011;48240;52.962;5.790;2022-11-20T16:34:01;8.45;;;3.88;;
62256;SDS011;48240;52.962;5.790;2022-11-20T16:36:28;4.00;;;3.60;;
62256;SDS011;48240;52.962;5.790;2022-11-20T16:38:56;5.28;;;3.70;;
62256;SDS011;48240;52.962;5.790;2022-11-20T16:41:23;5.72;;;3.55;;
62256;SDS011;48240;52.962;5.790;2022-11-20T16:43:57;5.40;;;4.00;;
62256;SDS011;48240;52.962;5.790;2022-11-20T16:46:24;11.82;;;4.20;;
62256;SDS011;48240;52.962;5.790;2022-11-20T16:48:54;5.30;;;3.72;;
62256;SDS011;48240;52.962;5.790;2022-11-20T16:51:21;5.32;;;4.00;;
62256;SDS011;48240;52.962;5.790;2022-11-20T16:53:48;5.43;;;4.32;;
62256;SDS011;48240;52.962;5.790;2022-11-20T16:56:16;5.40;;;3.85;;
62256;SDS011;48240;52.962;5.790;2022-11-20T16:58:42;7.20;;;4.60;;
62256;SDS011;48240;52.962;5.790;2022-11-20T17:01:09;6.28;;;4.00;;
62256;SDS011;48240;52.962;5.790;2022-11-20T17:03:36;7.43;;;4.22;;
62256;SDS011;48240;52.962;5.790;2022-11-20T17:06:09;4.93;;;4.05;;
62256;SDS011;48240;52.962;5.790;2022-11-20T17:08:36;9.18;;;4.35;;
62256;SDS011;48240;52.962;5.790;2022-11-20T17:11:06;7.97;;;4.75;;
62256;SDS011;48240;52.962;5.790;2022-11-20T17:13:32;36.88;;;24.20;;
62256;SDS011;48240;52.962;5.790;2022-11-20T17:16:05;17.35;;;9.30;;
62256;SDS011;48240;52.962;5.790;2022-11-20T17:18:32;17.48;;;8.77;;
62256;SDS011;48240;52.962;5.790;2022-11-20T17:20:58;16.42;;;8.98;;
62256;SDS011;48240;52.962;5.790;2022-11-20T17:23:35;14.10;;;8.32;;
62256;SDS011;48240;52.962;5.790;2022-11-20T17:26:05;16.10;;;7.82;;
62256;SDS011;48240;52.962;5.790;2022-11-20T17:28:32;16.63;;;8.60;;
62256;SDS011;48240;52.962;5.790;2022-11-20T17:30:59;13.98;;;8.55;;
62256;SDS011;48240;52.962;5.790;2022-11-20T17:33:25;12.02;;;7.55;;
62256;SDS011;48240;52.962;5.790;2022-11-20T17:35:51;13.13;;;6.90;;
62256;SDS011;48240;52.962;5.790;2022-11-20T17:38:17;12.40;;;7.32;;
62256;SDS011;48240;52.962;5.790;2022-11-20T17:40:44;11.38;;;7.18;;
62256;SDS011;48240;52.962;5.790;2022-11-20T17:43:10;12.23;;;7.82;;
62256;SDS011;48240;52.962;5.790;2022-11-20T17:45:36;11.05;;;7.50;;
62256;SDS011;48240;52.962;5.790;2022-11-20T17:48:02;12.05;;;7.30;;
62256;SDS011;48240;52.962;5.790;2022-11-20T17:50:29;10.30;;;6.93;;
62256;SDS011;48240;52.962;5.790;2022-11-20T17:52:55;11.52;;;7.03;;
62256;SDS011;48240;52.962;5.790;2022-11-20T17:55:21;11.27;;;7.18;;
62256;SDS011;48240;52.962;5.790;2022-11-20T17:57:47;13.00;;;6.78;;
62256;SDS011;48240;52.962;5.790;2022-11-20T18:00:17;9.52;;;6.78;;
62256;SDS011;48240;52.962;5.790;2022-11-20T18:02:44;10.90;;;6.85;;
62256;SDS011;48240;52.962;5.790;2022-11-20T18:05:10;11.88;;;6.68;;
62256;SDS011;48240;52.962;5.790;2022-11-20T18:07:36;9.07;;;6.88;;
62256;SDS011;48240;52.962;5.790;2022-11-20T18:10:03;11.00;;;6.50;;
62256;SDS011;48240;52.962;5.790;2022-11-20T18:12:29;12.18;;;6.80;;
62256;SDS011;48240;52.962;5.790;2022-11-20T18:14:55;9.93;;;6.25;;
62256;SDS011;48240;52.962;5.790;2022-11-20T18:17:21;10.27;;;6.30;;
62256;SDS011;48240;52.962;5.790;2022-11-20T18:19:47;8.23;;;6.22;;
62256;SDS011;48240;52.962;5.790;2022-11-20T18:22:15;11.73;;;6.53;;
62256;SDS011;48240;52.962;5.790;2022-11-20T18:24:41;10.30;;;6.10;;
62256;SDS011;48240;52.962;5.790;2022-11-20T18:27:11;8.18;;;5.90;;
62256;SDS011;48240;52.962;5.790;2022-11-20T18:29:38;8.30;;;6.25;;
62256;SDS011;48240;52.962;5.790;2022-11-20T18:32:04;15.43;;;6.60;;
62256;SDS011;48240;52.962;5.790;2022-11-20T18:34:30;10.90;;;5.93;;
62256;SDS011;48240;52.962;5.790;2022-11-20T18:36:56;7.18;;;5.68;;
62256;SDS011;48240;52.962;5.790;2022-11-20T18:39:22;8.73;;;6.07;;
62256;SDS011;48240;52.962;5.790;2022-11-20T18:41:49;9.30;;;6.53;;
62256;SDS011;48240;52.962;5.790;2022-11-20T18:44:34;11.85;;;6.38;;
62256;SDS011;48240;52.962;5.790;2022-11-20T18:47:25;9.05;;;5.75;;
62256;SDS011;48240;52.962;5.790;2022-11-20T18:49:53;9.90;;;5.80;;
62256;SDS011;48240;52.962;5.790;2022-11-20T18:52:22;7.55;;;5.82;;
62256;SDS011;48240;52.962;5.790;2022-11-20T18:54:49;9.05;;;5.55;;
62256;SDS011;48240;52.962;5.790;2022-11-20T18:57:16;10.05;;;5.68;;
62256;SDS011;48240;52.962;5.790;2022-11-20T18:59:42;9.77;;;5.53;;
62256;SDS011;48240;52.962;5.790;2022-11-20T19:02:09;7.80;;;5.45;;
62256;SDS011;48240;52.962;5.790;2022-11-20T19:04:36;7.95;;;5.35;;
62256;SDS011;48240;52.962;5.790;2022-11-20T19:07:02;7.28;;;5.70;;
62256;SDS011;48240;52.962;5.790;2022-11-20T19:09:28;8.05;;;5.32;;
62256;SDS011;48240;52.962;5.790;2022-11-20T19:11:55;12.23;;;5.30;;
62256;SDS011;48240;52.962;5.790;2022-11-20T19:14:21;7.22;;;5.47;;
62256;SDS011;48240;52.962;5.790;2022-11-20T19:16:47;12.75;;;5.32;;
62256;SDS011;48240;52.962;5.790;2022-11-20T19:19:13;7.35;;;5.10;;
62256;SDS011;48240;52.962;5.790;2022-11-20T19:21:40;7.53;;;5.28;;
62256;SDS011;48240;52.962;5.790;2022-11-20T19:24:06;16.33;;;5.15;;
62256;SDS011;48240;52.962;5.790;2022-11-20T19:26:36;17.63;;;6.43;;
62256;SDS011;48240;52.962;5.790;2022-11-20T19:29:03;13.50;;;6.05;;
62256;SDS011;48240;52.962;5.790;2022-11-20T19:31:29;11.35;;;5.57;;
62256;SDS011;48240;52.962;5.790;2022-11-20T19:33:57;19.90;;;6.05;;
62256;SDS011;48240;52.962;5.790;2022-11-20T19:36:24;13.48;;;5.57;;
62256;SDS011;48240;52.962;5.790;2022-11-20T19:38:51;11.15;;;5.78;;
62256;SDS011;48240;52.962;5.790;2022-11-20T19:41:19;13.40;;;5.65;;
62256;SDS011;48240;52.962;5.790;2022-11-20T19:43:45;10.25;;;5.47;;
62256;SDS011;48240;52.962;5.790;2022-11-20T19:46:15;10.00;;;5.70;;
62256;SDS011;48240;52.962;5.790;2022-11-20T19:48:42;12.25;;;5.65;;
62256;SDS011;48240;52.962;5.790;2022-11-20T19:51:09;11.05;;;5.95;;
62256;SDS011;48240;52.962;5.790;2022-11-20T19:53:35;8.50;;;5.70;;
62256;SDS011;48240;52.962;5.790;2022-11-20T19:56:02;11.55;;;5.68;;
62256;SDS011;48240;52.962;5.790;2022-11-20T19:58:28;10.30;;;5.53;;
62256;SDS011;48240;52.962;5.790;2022-11-20T20:00:54;9.48;;;5.85;;
62256;SDS011;48240;52.962;5.790;2022-11-20T20:03:21;10.95;;;5.35;;
62256;SDS011;48240;52.962;5.790;2022-11-20T20:05:47;8.23;;;5.18;;
62256;SDS011;48240;52.962;5.790;2022-11-20T20:08:13;9.80;;;5.40;;
62256;SDS011;48240;52.962;5.790;2022-11-20T20:10:40;10.60;;;5.40;;
62256;SDS011;48240;52.962;5.790;2022-11-20T20:13:06;8.32;;;5.15;;
62256;SDS011;48240;52.962;5.790;2022-11-20T20:15:32;9.18;;;5.63;;
62256;SDS011;48240;52.962;5.790;2022-11-20T20:17:58;7.97;;;5.57;;
62256;SDS011;48240;52.962;5.790;2022-11-20T20:20:24;8.40;;;5.70;;
62256;SDS011;48240;52.962;5.790;2022-11-20T20:22:50;9.88;;;5.25;;
62256;SDS011;48240;52.962;5.790;2022-11-20T20:25:16;7.85;;;5.50;;
62256;SDS011;48240;52.962;5.790;2022-11-20T20:27:43;9.95;;;5.40;;
62256;SDS011;48240;52.962;5.790;2022-11-20T20:30:09;10.30;;;5.30;;
62256;SDS011;48240;52.962;5.790;2022-11-20T20:32:36;11.70;;;5.50;;
62256;SDS011;48240;52.962;5.790;2022-11-20T20:35:03;9.05;;;5.90;;
62256;SDS011;48240;52.962;5.790;2022-11-20T20:37:29;7.30;;;5.68;;
62256;SDS011;48240;52.962;5.790;2022-11-20T20:39:55;12.18;;;5.47;;
62256;SDS011;48240;52.962;5.790;2022-11-20T20:42:22;8.25;;;5.35;;
62256;SDS011;48240;52.962;5.790;2022-11-20T20:44:48;8.18;;;5.03;;
62256;SDS011;48240;52.962;5.790;2022-11-20T20:47:33;7.30;;;4.88;;
62256;SDS011;48240;52.962;5.790;2022-11-20T20:49:59;7.85;;;5.55;;
62256;SDS011;48240;52.962;5.790;2022-11-20T20:52:25;8.25;;;5.80;;
62256;SDS011;48240;52.962;5.790;2022-11-20T20:54:52;12.82;;;5.82;;
62256;SDS011;48240;52.962;5.790;2022-11-20T20:57:18;9.55;;;5.82;;
62256;SDS011;48240;52.962;5.790;2022-11-20T20:59:44;8.20;;;5.30;;
62256;SDS011;48240;52.962;5.790;2022-11-20T21:02:10;7.78;;;4.68;;
62256;SDS011;48240;52.962;5.790;2022-11-20T21:04:37;11.23;;;5.80;;
62256;SDS011;48240;52.962;5.790;2022-11-20T21:07:03;11.10;;;5.45;;